createdAt,value
2016-09-28T00:00:47.271Z,0
2016-09-28T00:01:47.552Z,0
2016-09-28T00:02:47.848Z,0
2016-09-28T00:03:47.824Z,0
2016-09-28T00:04:47.499Z,0
2016-09-28T00:05:47.789Z,0
2016-09-28T00:06:47.765Z,0
2016-09-28T00:07:47.745Z,0
2016-09-28T00:08:47.734Z,0
2016-09-28T00:09:47.715Z,0
2016-09-28T00:10:47.399Z,0
2016-09-28T00:11:47.692Z,0
2016-09-28T00:12:47.362Z,0
2016-09-28T00:13:47.346Z,0
2016-09-28T00:14:47.645Z,0
2016-09-28T00:15:47.611Z,0
2016-09-28T00:16:47.656Z,0
2016-09-28T00:17:47.586Z,0
2016-09-28T00:18:47.581Z,0
2016-09-28T00:19:47.544Z,0
2016-09-28T00:20:47.533Z,0
2016-09-28T00:21:47.516Z,0
2016-09-28T00:22:47.500Z,0
2016-09-28T00:23:47.477Z,0
2016-09-28T00:24:47.468Z,0
2016-09-28T00:25:47.143Z,0
2016-09-28T00:26:47.143Z,0
2016-09-28T00:27:47.115Z,0
2016-09-28T00:28:47.105Z,0
2016-09-28T00:29:47.387Z,0
2016-09-28T00:30:47.375Z,0
2016-09-28T00:31:47.344Z,0
2016-09-28T00:32:47.331Z,0
2016-09-28T00:33:47.323Z,0
2016-09-28T00:34:47.303Z,0
2016-09-28T00:35:47.283Z,0
2016-09-28T00:36:46.957Z,0
2016-09-28T00:37:47.261Z,0
2016-09-28T00:38:47.239Z,0
2016-09-28T00:39:47.212Z,0
2016-09-28T00:40:47.196Z,0
2016-09-28T00:41:46.892Z,0
2016-09-28T00:42:46.864Z,0
2016-09-28T00:43:47.153Z,0
2016-09-28T00:44:46.827Z,0
2016-09-28T00:45:47.112Z,0
2016-09-28T00:46:46.811Z,0
2016-09-28T00:47:46.789Z,0
2016-09-28T00:48:47.069Z,0
2016-09-28T00:49:47.053Z,0
2016-09-28T00:50:47.035Z,0
2016-09-28T00:51:46.720Z,0
2016-09-28T00:52:46.683Z,0
2016-09-28T00:53:46.696Z,0
2016-09-28T00:54:46.663Z,0
2016-09-28T00:55:46.956Z,0
2016-09-28T00:56:46.629Z,0
2016-09-28T00:57:46.912Z,0
2016-09-28T00:58:46.594Z,0
2016-09-28T00:59:46.877Z,0
2016-09-28T01:00:46.863Z,0
2016-09-28T01:01:46.848Z,0
2016-09-28T01:02:46.833Z,0
2016-09-28T01:03:46.506Z,0
2016-09-28T01:04:46.795Z,0
2016-09-28T01:05:46.483Z,0
2016-09-28T01:06:46.762Z,0
2016-09-28T01:07:46.745Z,0
2016-09-28T01:08:46.426Z,0
2016-09-28T01:09:46.402Z,0
2016-09-28T01:10:46.691Z,0
2016-09-28T01:11:46.688Z,0
2016-09-28T01:12:46.676Z,0
2016-09-28T01:13:46.643Z,0
2016-09-28T01:14:46.632Z,0
2016-09-28T01:15:46.305Z,0
2016-09-28T01:16:46.589Z,0
2016-09-28T01:17:46.278Z,0
2016-09-28T01:18:46.565Z,0
2016-09-28T01:19:46.560Z,0
2016-09-28T01:20:46.222Z,0
2016-09-28T01:21:46.514Z,0
2016-09-28T01:22:46.497Z,0
2016-09-28T01:23:46.480Z,0
2016-09-28T01:24:46.467Z,0
2016-09-28T01:25:46.446Z,0
2016-09-28T01:26:46.128Z,0
2016-09-28T01:27:46.114Z,0
2016-09-28T01:28:46.389Z,0
2016-09-28T01:29:46.384Z,0
2016-09-28T01:30:45.762Z,0
2016-09-28T01:31:46.344Z,0
2016-09-28T01:32:46.318Z,0
2016-09-28T01:33:46.313Z,0
2016-09-28T01:34:45.993Z,0
2016-09-28T01:35:46.275Z,0
2016-09-28T01:36:45.954Z,0
2016-09-28T01:37:45.336Z,0
2016-09-28T01:38:46.225Z,0
2016-09-28T01:39:45.606Z,0
2016-09-28T01:40:46.183Z,0
2016-09-28T01:41:46.177Z,0
2016-09-28T01:42:46.154Z,0
2016-09-28T01:43:46.148Z,0
2016-09-28T01:44:46.132Z,0
2016-09-28T01:45:46.113Z,0
2016-09-28T01:46:45.790Z,0
2016-09-28T01:47:45.776Z,0
2016-09-28T01:48:46.066Z,0
2016-09-28T01:49:46.038Z,0
2016-09-28T01:50:46.021Z,0
2016-09-28T01:51:46.018Z,0
2016-09-28T01:52:46.000Z,0
2016-09-28T01:53:45.376Z,0
2016-09-28T01:54:45.964Z,0
2016-09-28T01:55:45.632Z,0
2016-09-28T01:56:45.333Z,0
2016-09-28T01:57:45.912Z,0
2016-09-28T01:58:45.894Z,0
2016-09-28T01:59:45.574Z,0
2016-09-28T02:00:45.857Z,0
2016-09-28T02:01:45.834Z,0
2016-09-28T02:02:45.826Z,0
2016-09-28T02:03:45.802Z,0
2016-09-28T02:04:45.785Z,0
2016-09-28T02:05:45.784Z,0
2016-09-28T02:06:45.760Z,0
2016-09-28T02:07:45.740Z,0
2016-09-28T02:08:45.720Z,0
2016-09-28T02:09:45.714Z,0
2016-09-28T02:10:45.688Z,0
2016-09-28T02:11:45.673Z,0
2016-09-28T02:12:45.651Z,0
2016-09-28T02:13:45.345Z,0
2016-09-28T02:14:45.618Z,0
2016-09-28T02:15:45.303Z,0
2016-09-28T02:16:45.596Z,0
2016-09-28T02:17:45.271Z,0
2016-09-28T02:18:45.552Z,0
2016-09-28T02:19:45.528Z,0
2016-09-28T02:20:45.217Z,0
2016-09-28T02:21:45.505Z,0
2016-09-28T02:22:45.483Z,0
2016-09-28T02:23:45.173Z,0
2016-09-28T02:24:44.859Z,0
2016-09-28T02:25:45.136Z,0
2016-09-28T02:26:45.415Z,0
2016-09-28T02:27:44.793Z,0
2016-09-28T02:28:44.779Z,0
2016-09-28T02:29:45.063Z,0
2016-09-28T02:30:45.348Z,0
2016-09-28T02:31:45.349Z,0
2016-09-28T02:32:45.320Z,0
2016-09-28T02:33:45.309Z,0
2016-09-28T02:34:45.276Z,0
2016-09-28T02:35:45.274Z,0
2016-09-28T02:36:44.953Z,0
2016-09-28T02:37:44.928Z,0
2016-09-28T02:38:45.218Z,0
2016-09-28T02:39:45.206Z,0
2016-09-28T02:40:45.181Z,0
2016-09-28T02:41:44.867Z,0
2016-09-28T02:42:45.164Z,0
2016-09-28T02:43:44.544Z,0
2016-09-28T02:44:45.124Z,0
2016-09-28T02:45:45.099Z,0
2016-09-28T02:46:45.077Z,0
2016-09-28T02:47:44.778Z,0
2016-09-28T02:48:44.745Z,0
2016-09-28T02:49:45.037Z,0
2016-09-28T02:50:44.715Z,0
2016-09-28T02:51:44.695Z,0
2016-09-28T02:52:44.672Z,0
2016-09-28T02:53:44.981Z,0
2016-09-28T02:54:44.950Z,0
2016-09-28T02:55:44.931Z,0
2016-09-28T02:56:44.920Z,0
2016-09-28T02:57:44.316Z,0
2016-09-28T02:58:44.590Z,0
2016-09-28T02:59:44.868Z,0
2016-09-28T03:00:44.856Z,0
2016-09-28T03:01:44.828Z,0
2016-09-28T03:02:44.806Z,0
2016-09-28T03:03:44.816Z,0
2016-09-28T03:04:44.795Z,0
2016-09-28T03:05:44.766Z,0
2016-09-28T03:06:44.753Z,0
2016-09-28T03:07:44.728Z,0
2016-09-28T03:08:44.711Z,0
2016-09-28T03:09:44.395Z,0
2016-09-28T03:10:44.381Z,0
2016-09-28T03:11:44.661Z,0
2016-09-28T03:12:44.638Z,0
2016-09-28T03:13:44.631Z,0
2016-09-28T03:14:44.308Z,0
2016-09-28T03:15:44.591Z,0
2016-09-28T03:16:44.573Z,0
2016-09-28T03:17:44.566Z,0
2016-09-28T03:18:44.543Z,0
2016-09-28T03:19:44.523Z,0
2016-09-28T03:20:44.513Z,0
2016-09-28T03:21:44.198Z,0
2016-09-28T03:22:43.872Z,0
2016-09-28T03:23:44.455Z,0
2016-09-28T03:24:44.440Z,0
2016-09-28T03:25:44.422Z,0
2016-09-28T03:26:44.410Z,0
2016-09-28T03:27:44.399Z,0
2016-09-28T03:28:44.087Z,0
2016-09-28T03:29:44.076Z,0
2016-09-28T03:30:44.039Z,0
2016-09-28T03:31:44.028Z,0
2016-09-28T03:32:44.314Z,0
2016-09-28T03:33:44.301Z,0
2016-09-28T03:34:44.280Z,0
2016-09-28T03:35:43.953Z,0
2016-09-28T03:36:44.233Z,0
2016-09-28T03:37:44.220Z,0
2016-09-28T03:38:44.213Z,0
2016-09-28T03:39:43.888Z,0
2016-09-28T03:40:43.878Z,0
2016-09-28T03:41:44.152Z,0
2016-09-28T03:42:44.142Z,0
2016-09-28T03:43:44.144Z,0
2016-09-28T03:44:43.804Z,0
2016-09-28T03:45:43.788Z,0
2016-09-28T03:46:43.487Z,0
2016-09-28T03:47:44.261Z,0
2016-09-28T03:48:43.739Z,0
2016-09-28T03:49:44.022Z,0
2016-09-28T03:50:44.004Z,0
2016-09-28T03:51:43.985Z,0
2016-09-28T03:52:43.969Z,0
2016-09-28T03:53:43.953Z,0
2016-09-28T03:54:43.937Z,0
2016-09-28T03:55:43.620Z,0
2016-09-28T03:56:43.905Z,0
2016-09-28T03:57:43.590Z,0
2016-09-28T03:58:43.873Z,0
2016-09-28T03:59:43.860Z,0
2016-09-28T04:00:43.839Z,0
2016-09-28T04:01:43.820Z,0
2016-09-28T04:02:43.806Z,0
2016-09-28T04:03:43.793Z,0
2016-09-28T04:04:43.475Z,0
2016-09-28T04:05:43.455Z,0
2016-09-28T04:06:43.735Z,0
2016-09-28T04:07:43.711Z,0
2016-09-28T04:08:43.404Z,0
2016-09-28T04:09:43.684Z,0
2016-09-28T04:10:43.668Z,0
2016-09-28T04:11:43.655Z,0
2016-09-28T04:12:43.331Z,0
2016-09-28T04:13:43.624Z,0
2016-09-28T04:14:43.305Z,0
2016-09-28T04:15:43.288Z,0
2016-09-28T04:16:43.261Z,0
2016-09-28T04:17:43.559Z,0
2016-09-28T04:18:43.538Z,0
2016-09-28T04:19:43.531Z,0
2016-09-28T04:20:43.525Z,0
2016-09-28T04:21:43.491Z,0
2016-09-28T04:22:43.463Z,0
2016-09-28T04:23:43.453Z,0
2016-09-28T04:24:42.833Z,0
2016-09-28T04:25:43.420Z,0
2016-09-28T04:26:43.101Z,0
2016-09-28T04:27:43.392Z,0
2016-09-28T04:28:43.064Z,0
2016-09-28T04:29:43.374Z,0
2016-09-28T04:30:43.336Z,0
2016-09-28T04:31:43.307Z,0
2016-09-28T04:32:42.702Z,0
2016-09-28T04:33:42.977Z,0
2016-09-28T04:34:42.963Z,0
2016-09-28T04:35:42.658Z,0
2016-09-28T04:36:43.239Z,0
2016-09-28T04:37:42.922Z,0
2016-09-28T04:38:43.196Z,0
2016-09-28T04:39:43.184Z,0
2016-09-28T04:40:42.869Z,0
2016-09-28T04:41:42.845Z,0
2016-09-28T04:42:42.526Z,0
2016-09-28T04:43:43.115Z,0
2016-09-28T04:44:42.820Z,0
2016-09-28T04:45:43.078Z,0
2016-09-28T04:46:42.763Z,0
2016-09-28T04:47:43.053Z,0
2016-09-28T04:48:42.741Z,0
2016-09-28T04:49:42.716Z,0
2016-09-28T04:50:42.998Z,0
2016-09-28T04:51:42.979Z,0
2016-09-28T04:52:42.660Z,0
2016-09-28T04:53:42.945Z,0
2016-09-28T04:54:42.936Z,0
2016-09-28T04:55:42.913Z,0
2016-09-28T04:56:42.606Z,0
2016-09-28T04:57:42.880Z,0
2016-09-28T04:58:42.865Z,0
2016-09-28T04:59:42.847Z,0
2016-09-28T05:00:42.523Z,0
2016-09-28T05:01:42.811Z,0
2016-09-28T05:02:42.794Z,0
2016-09-28T05:03:42.778Z,0
2016-09-28T05:04:42.757Z,0
2016-09-28T05:05:42.737Z,0
2016-09-28T05:06:42.718Z,0
2016-09-28T05:07:42.719Z,0
2016-09-28T05:08:42.692Z,0
2016-09-28T05:09:42.379Z,0
2016-09-28T05:10:42.658Z,0
2016-09-28T05:11:42.334Z,0
2016-09-28T05:12:42.651Z,0
2016-09-28T05:13:42.618Z,0
2016-09-28T05:14:42.297Z,0
2016-09-28T05:15:42.571Z,0
2016-09-28T05:16:42.560Z,0
2016-09-28T05:17:42.547Z,0
2016-09-28T05:18:42.529Z,0
2016-09-28T05:19:42.509Z,0
2016-09-28T05:20:42.486Z,0
2016-09-28T05:21:42.464Z,0
2016-09-28T05:22:42.157Z,0
2016-09-28T05:23:42.135Z,0
2016-09-28T05:24:42.414Z,0
2016-09-28T05:25:42.401Z,0
2016-09-28T05:26:42.091Z,0
2016-09-28T05:27:42.062Z,0
2016-09-28T05:28:42.353Z,0
2016-09-28T05:29:42.345Z,0
2016-09-28T05:30:42.309Z,0
2016-09-28T05:31:42.312Z,0
2016-09-28T05:32:42.299Z,0
2016-09-28T05:33:42.277Z,0
2016-09-28T05:34:42.268Z,0
2016-09-28T05:35:42.237Z,0
2016-09-28T05:36:42.213Z,0
2016-09-28T05:37:41.899Z,0
2016-09-28T05:38:41.881Z,0
2016-09-28T05:39:41.868Z,0
2016-09-28T05:40:41.856Z,0
2016-09-28T05:41:41.834Z,0
2016-09-28T05:42:42.115Z,0
2016-09-28T05:43:42.091Z,0
2016-09-28T05:44:42.086Z,0
2016-09-28T05:45:42.091Z,0
2016-09-28T05:46:42.053Z,0
2016-09-28T05:47:42.031Z,0
2016-09-28T05:48:42.019Z,0
2016-09-28T05:49:41.998Z,0
2016-09-28T05:50:41.981Z,0
2016-09-28T05:51:41.664Z,0
2016-09-28T05:52:41.943Z,0
2016-09-28T05:53:41.628Z,0
2016-09-28T05:54:41.914Z,0
2016-09-28T05:55:41.894Z,0
2016-09-28T05:56:41.869Z,0
2016-09-28T05:57:41.876Z,0
2016-09-28T05:58:41.857Z,0
2016-09-28T05:59:41.816Z,0
2016-09-28T06:00:41.520Z,0
2016-09-28T06:01:41.798Z,0
2016-09-28T06:02:41.778Z,0
2016-09-28T06:03:41.759Z,0
2016-09-28T06:04:41.442Z,0
2016-09-28T06:05:41.426Z,0
2016-09-28T06:06:41.711Z,0
2016-09-28T06:07:41.397Z,0
2016-09-28T06:08:41.679Z,0
2016-09-28T06:09:41.662Z,0
2016-09-28T06:10:41.638Z,0
2016-09-28T06:11:41.621Z,0
2016-09-28T06:12:41.612Z,0
2016-09-28T06:13:41.583Z,0
2016-09-28T06:14:41.275Z,0
2016-09-28T06:15:41.554Z,0
2016-09-28T06:16:41.242Z,0
2016-09-28T06:17:41.238Z,0
2016-09-28T06:18:41.508Z,0
2016-09-28T06:19:41.487Z,0
2016-09-28T06:20:41.166Z,0
2016-09-28T06:21:41.166Z,0
2016-09-28T06:22:41.436Z,0
2016-09-28T06:23:41.122Z,0
2016-09-28T06:24:40.809Z,0
2016-09-28T06:25:41.079Z,0
2016-09-28T06:26:41.365Z,0
2016-09-28T06:27:41.357Z,0
2016-09-28T06:28:41.340Z,0
2016-09-28T06:29:41.017Z,0
2016-09-28T06:30:41.295Z,4
2016-09-28T06:31:40.995Z,4
2016-09-28T06:32:41.261Z,4
2016-09-28T06:33:40.942Z,0
2016-09-28T06:34:40.938Z,0
2016-09-28T06:35:40.920Z,4
2016-09-28T06:36:41.193Z,4
2016-09-28T06:37:41.181Z,4
2016-09-28T06:38:41.165Z,8
2016-09-28T06:39:41.153Z,4
2016-09-28T06:40:41.140Z,4
2016-09-28T06:41:40.813Z,8
2016-09-28T06:42:40.498Z,8
2016-09-28T06:43:41.078Z,4
2016-09-28T06:44:41.070Z,8
2016-09-28T06:45:41.043Z,8
2016-09-28T06:46:41.040Z,8
2016-09-28T06:47:41.013Z,8
2016-09-28T06:48:40.990Z,12
2016-09-28T06:49:40.685Z,12
2016-09-28T06:50:40.964Z,12
2016-09-28T06:51:40.940Z,12
2016-09-28T06:52:40.333Z,12
2016-09-28T06:53:40.330Z,12
2016-09-28T06:54:40.909Z,12
2016-09-28T06:55:40.589Z,12
2016-09-28T06:56:40.558Z,12
2016-09-28T06:57:40.856Z,12
2016-09-28T06:58:40.829Z,12
2016-09-28T06:59:40.506Z,12
2016-09-28T07:00:40.798Z,12
2016-09-28T07:01:40.783Z,12
2016-09-28T07:02:40.761Z,12
2016-09-28T07:03:40.744Z,12
2016-09-28T07:04:40.729Z,12
2016-09-28T07:05:40.410Z,12
2016-09-28T07:06:40.690Z,12
2016-09-28T07:07:40.677Z,12
2016-09-28T07:08:40.353Z,12
2016-09-28T07:09:40.339Z,12
2016-09-28T07:10:40.331Z,12
2016-09-28T07:11:40.600Z,12
2016-09-28T07:12:40.589Z,12
2016-09-28T07:13:40.574Z,12
2016-09-28T07:14:40.259Z,12
2016-09-28T07:15:40.248Z,12
2016-09-28T07:16:40.227Z,12
2016-09-28T07:17:40.517Z,12
2016-09-28T07:18:40.493Z,12
2016-09-28T07:19:40.476Z,12
2016-09-28T07:20:40.162Z,12
2016-09-28T07:21:40.442Z,12
2016-09-28T07:22:40.413Z,12
2016-09-28T07:23:40.104Z,12
2016-09-28T07:24:40.086Z,12
2016-09-28T07:25:40.369Z,12
2016-09-28T07:26:40.348Z,12
2016-09-28T07:27:39.739Z,12
2016-09-28T07:28:40.319Z,12
2016-09-28T07:29:40.003Z,12
2016-09-28T07:30:39.982Z,12
2016-09-28T07:31:39.678Z,12
2016-09-28T07:32:40.249Z,12
2016-09-28T07:33:40.233Z,12
2016-09-28T07:34:40.222Z,12
2016-09-28T07:35:40.206Z,12
2016-09-28T07:36:40.180Z,12
2016-09-28T07:37:40.169Z,12
2016-09-28T07:38:39.854Z,12
2016-09-28T07:39:39.840Z,12
2016-09-28T07:40:40.121Z,12
2016-09-28T07:41:39.502Z,16
2016-09-28T07:42:40.081Z,16
2016-09-28T07:43:39.468Z,12
2016-09-28T07:44:40.044Z,12
2016-09-28T07:45:39.732Z,16
2016-09-28T07:46:40.024Z,16
2016-09-28T07:47:39.995Z,12
2016-09-28T07:48:39.980Z,16
2016-09-28T07:49:39.957Z,16
2016-09-28T07:50:39.645Z,12
2016-09-28T07:51:39.942Z,12
2016-09-28T07:52:39.916Z,12
2016-09-28T07:53:39.906Z,12
2016-09-28T07:54:39.576Z,16
2016-09-28T07:55:39.259Z,12
2016-09-28T07:56:39.540Z,12
2016-09-28T07:57:39.224Z,12
2016-09-28T07:58:39.814Z,16
2016-09-28T07:59:39.791Z,12
2016-09-28T08:00:39.772Z,12
2016-09-28T08:01:39.458Z,16
2016-09-28T08:02:39.769Z,16
2016-09-28T08:03:39.425Z,16
2016-09-28T08:04:39.717Z,12
2016-09-28T08:05:39.089Z,12
2016-09-28T08:06:39.374Z,16
2016-09-28T08:07:39.060Z,16
2016-09-28T08:08:39.643Z,16
2016-09-28T08:09:39.622Z,12
2016-09-28T08:10:39.614Z,4
2016-09-28T08:11:39.606Z,4
2016-09-28T08:12:39.277Z,4
2016-09-28T08:13:39.256Z,4
2016-09-28T08:14:39.548Z,4
2016-09-28T08:15:39.525Z,0
2016-09-28T08:16:39.210Z,4
2016-09-28T08:17:39.196Z,0
2016-09-28T08:18:39.477Z,4
2016-09-28T08:19:38.874Z,4
2016-09-28T08:20:39.140Z,4
2016-09-28T08:21:39.429Z,0
2016-09-28T08:22:38.808Z,0
2016-09-28T08:23:39.088Z,4
2016-09-28T08:24:39.391Z,4
2016-09-28T08:25:39.364Z,4
2016-09-28T08:26:39.050Z,4
2016-09-28T08:27:39.019Z,4
2016-09-28T08:28:39.013Z,4
2016-09-28T08:29:39.292Z,0
2016-09-28T08:30:39.268Z,0
2016-09-28T08:31:38.961Z,4
2016-09-28T08:32:39.250Z,4
2016-09-28T08:33:38.927Z,4
2016-09-28T08:34:39.207Z,4
2016-09-28T08:35:39.211Z,4
2016-09-28T08:36:38.867Z,4
2016-09-28T08:37:39.158Z,4
2016-09-28T08:38:39.152Z,4
2016-09-28T08:39:39.131Z,4
2016-09-28T08:40:39.108Z,4
2016-09-28T08:41:38.488Z,4
2016-09-28T08:42:38.757Z,4
2016-09-28T08:43:38.762Z,0
2016-09-28T08:44:39.043Z,4
2016-09-28T08:45:38.740Z,4
2016-09-28T08:46:39.025Z,4
2016-09-28T08:47:38.687Z,0
2016-09-28T08:48:38.973Z,0
2016-09-28T08:49:38.659Z,0
2016-09-28T08:50:38.631Z,0
2016-09-28T08:51:38.621Z,4
2016-09-28T08:52:38.899Z,0
2016-09-28T08:53:38.595Z,0
2016-09-28T08:54:38.576Z,4
2016-09-28T08:55:38.564Z,0
2016-09-28T08:56:38.857Z,4
2016-09-28T08:57:38.826Z,0
2016-09-28T08:58:38.208Z,4
2016-09-28T08:59:38.785Z,4
2016-09-28T09:00:38.789Z,4
2016-09-28T09:01:38.448Z,4
2016-09-28T09:02:38.424Z,4
2016-09-28T09:03:38.724Z,4
2016-09-28T09:04:38.392Z,4
2016-09-28T09:05:38.699Z,4
2016-09-28T09:06:38.658Z,0
2016-09-28T09:07:38.344Z,0
2016-09-28T09:08:38.343Z,0
2016-09-28T09:09:38.623Z,0
2016-09-28T09:10:38.616Z,4
2016-09-28T09:11:38.015Z,4
2016-09-28T09:12:38.578Z,4
2016-09-28T09:13:37.671Z,0
2016-09-28T09:14:38.538Z,0
2016-09-28T09:15:37.939Z,4
2016-09-28T09:16:38.513Z,4
2016-09-28T09:17:38.203Z,4
2016-09-28T09:18:38.182Z,4
2016-09-28T09:19:38.458Z,4
2016-09-28T09:20:38.163Z,0
2016-09-28T09:21:38.132Z,4
2016-09-28T09:22:38.121Z,4
2016-09-28T09:23:38.400Z,4
2016-09-28T09:24:38.376Z,4
2016-09-28T09:25:38.065Z,4
2016-09-28T09:26:38.039Z,8
2016-09-28T09:27:38.021Z,4
2016-09-28T09:28:38.328Z,8
2016-09-28T09:29:37.999Z,8
2016-09-28T09:30:38.286Z,8
2016-09-28T09:31:37.959Z,4
2016-09-28T09:32:38.250Z,4
2016-09-28T09:33:37.928Z,4
2016-09-28T09:34:38.220Z,4
2016-09-28T09:35:38.187Z,4
2016-09-28T09:36:37.873Z,4
2016-09-28T09:37:37.861Z,4
2016-09-28T09:38:37.843Z,4
2016-09-28T09:39:37.825Z,0
2016-09-28T09:40:37.821Z,0
2016-09-28T09:41:38.087Z,0
2016-09-28T09:42:37.485Z,0
2016-09-28T09:43:38.067Z,4
2016-09-28T09:44:37.747Z,4
2016-09-28T09:45:37.721Z,0
2016-09-28T09:46:38.014Z,0
2016-09-28T09:47:37.997Z,4
2016-09-28T09:48:37.966Z,4
2016-09-28T09:49:37.982Z,4
2016-09-28T09:50:37.945Z,4
2016-09-28T09:51:37.936Z,4
2016-09-28T09:52:37.620Z,4
2016-09-28T09:53:37.889Z,0
2016-09-28T09:54:37.576Z,4
2016-09-28T09:55:37.569Z,4
2016-09-28T09:56:37.548Z,4
2016-09-28T09:57:37.831Z,4
2016-09-28T09:58:37.498Z,4
2016-09-28T09:59:37.492Z,4
2016-09-28T10:00:37.155Z,4
2016-09-28T10:01:37.746Z,4
2016-09-28T10:02:37.726Z,4
2016-09-28T10:03:37.723Z,4
2016-09-28T10:04:37.415Z,4
2016-09-28T10:05:37.397Z,4
2016-09-28T10:06:37.682Z,4
2016-09-28T10:07:37.664Z,4
2016-09-28T10:08:37.628Z,4
2016-09-28T10:09:37.628Z,4
2016-09-28T10:10:37.310Z,4
2016-09-28T10:11:37.289Z,4
2016-09-28T10:12:37.268Z,4
2016-09-28T10:13:37.556Z,4
2016-09-28T10:14:37.540Z,4
2016-09-28T10:15:37.534Z,4
2016-09-28T10:16:36.908Z,4
2016-09-28T10:17:37.185Z,4
2016-09-28T10:18:37.465Z,4
2016-09-28T10:19:37.156Z,4
2016-09-28T10:20:37.442Z,4
2016-09-28T10:21:36.818Z,4
2016-09-28T10:22:37.408Z,4
2016-09-28T10:23:37.390Z,4
2016-09-28T10:24:37.355Z,8
2016-09-28T10:25:37.341Z,8
2016-09-28T10:26:36.424Z,4
2016-09-28T10:27:37.311Z,4
2016-09-28T10:28:36.998Z,0
2016-09-28T10:29:37.273Z,4
2016-09-28T10:30:37.264Z,4
2016-09-28T10:31:37.240Z,4
2016-09-28T10:32:37.225Z,4
2016-09-28T10:33:37.212Z,4
2016-09-28T10:34:37.188Z,8
2016-09-28T10:35:36.865Z,4
2016-09-28T10:36:37.164Z,4
2016-09-28T10:37:36.839Z,4
2016-09-28T10:38:37.125Z,4
2016-09-28T10:39:37.120Z,4
2016-09-28T10:40:37.087Z,8
2016-09-28T10:41:36.790Z,8
2016-09-28T10:42:37.067Z,8
2016-09-28T10:43:37.043Z,4
2016-09-28T10:44:37.039Z,4
2016-09-28T10:45:36.719Z,4
2016-09-28T10:46:36.395Z,4
2016-09-28T10:47:36.981Z,4
2016-09-28T10:48:36.962Z,4
2016-09-28T10:49:36.941Z,4
2016-09-28T10:50:36.922Z,4
2016-09-28T10:51:36.608Z,4
2016-09-28T10:52:36.589Z,4
2016-09-28T10:53:36.572Z,4
2016-09-28T10:54:36.562Z,4
2016-09-28T10:55:36.847Z,8
2016-09-28T10:56:36.844Z,8
2016-09-28T10:57:36.212Z,4
2016-09-28T10:58:36.500Z,4
2016-09-28T10:59:36.784Z,4
2016-09-28T11:00:36.761Z,4
2016-09-28T11:01:36.744Z,4
2016-09-28T11:02:36.129Z,4
2016-09-28T11:03:36.704Z,4
2016-09-28T11:04:36.390Z,4
2016-09-28T11:05:36.383Z,4
2016-09-28T11:06:36.061Z,4
2016-09-28T11:07:36.646Z,8
2016-09-28T11:08:36.326Z,4
2016-09-28T11:09:36.317Z,8
2016-09-28T11:10:36.598Z,4
2016-09-28T11:11:36.280Z,4
2016-09-28T11:12:36.561Z,8
2016-09-28T11:13:36.246Z,4
2016-09-28T11:14:35.956Z,4
2016-09-28T11:15:36.205Z,4
2016-09-28T11:16:35.898Z,4
2016-09-28T11:17:36.505Z,4
2016-09-28T11:18:36.172Z,4
2016-09-28T11:19:36.150Z,4
2016-09-28T11:20:36.453Z,4
2016-09-28T11:21:36.415Z,4
2016-09-28T11:22:36.418Z,4
2016-09-28T11:23:35.778Z,4
2016-09-28T11:24:36.071Z,4
2016-09-28T11:25:36.355Z,4
2016-09-28T11:26:36.343Z,4
2016-09-28T11:27:36.328Z,4
2016-09-28T11:28:36.023Z,4
2016-09-28T11:29:35.981Z,4
2016-09-28T11:30:35.970Z,8
2016-09-28T11:31:36.263Z,4
2016-09-28T11:32:35.958Z,4
2016-09-28T11:33:36.241Z,4
2016-09-28T11:34:36.218Z,4
2016-09-28T11:35:36.193Z,8
2016-09-28T11:36:36.179Z,8
2016-09-28T11:37:35.853Z,8
2016-09-28T11:38:35.840Z,4
2016-09-28T11:39:36.126Z,8
2016-09-28T11:40:35.811Z,4
2016-09-28T11:41:36.094Z,4
2016-09-28T11:42:36.073Z,4
2016-09-28T11:43:35.761Z,4
2016-09-28T11:44:35.761Z,4
2016-09-28T11:45:36.026Z,4
2016-09-28T11:46:36.007Z,8
2016-09-28T11:47:35.990Z,8
2016-09-28T11:48:35.706Z,8
2016-09-28T11:49:35.653Z,8
2016-09-28T11:50:35.956Z,4
2016-09-28T11:51:35.917Z,4
2016-09-28T11:52:35.900Z,8
2016-09-28T11:53:35.882Z,4
2016-09-28T11:54:35.569Z,8
2016-09-28T11:55:35.852Z,8
2016-09-28T11:56:35.834Z,8
2016-09-28T11:57:35.832Z,8
2016-09-28T11:58:35.511Z,8
2016-09-28T11:59:35.797Z,8
2016-09-28T12:00:35.790Z,8
2016-09-28T12:01:35.775Z,8
2016-09-28T12:02:35.451Z,8
2016-09-28T12:03:35.732Z,8
2016-09-28T12:04:35.117Z,8
2016-09-28T12:05:35.700Z,8
2016-09-28T12:06:35.701Z,4
2016-09-28T12:07:35.667Z,4
2016-09-28T12:08:35.346Z,4
2016-09-28T12:09:35.317Z,8
2016-09-28T12:10:35.619Z,8
2016-09-28T12:11:35.298Z,8
2016-09-28T12:12:35.286Z,4
2016-09-28T12:13:35.568Z,8
2016-09-28T12:14:35.564Z,4
2016-09-28T12:15:35.572Z,8
2016-09-28T12:16:35.524Z,4
2016-09-28T12:17:35.517Z,4
2016-09-28T12:18:35.488Z,8
2016-09-28T12:19:34.867Z,8
2016-09-28T12:20:35.448Z,8
2016-09-28T12:21:35.125Z,8
2016-09-28T12:22:35.410Z,8
2016-09-28T12:23:35.389Z,8
2016-09-28T12:24:35.386Z,8
2016-09-28T12:25:35.354Z,4
2016-09-28T12:26:35.048Z,4
2016-09-28T12:27:35.045Z,4
2016-09-28T12:28:35.003Z,8
2016-09-28T12:29:35.017Z,8
2016-09-28T12:30:34.979Z,4
2016-09-28T12:31:34.954Z,4
2016-09-28T12:32:35.247Z,4
2016-09-28T12:33:34.924Z,4
2016-09-28T12:34:34.916Z,4
2016-09-28T12:35:35.203Z,4
2016-09-28T12:36:35.181Z,8
2016-09-28T12:37:35.176Z,4
2016-09-28T12:38:35.149Z,4
2016-09-28T12:39:35.134Z,4
2016-09-28T12:40:35.126Z,4
2016-09-28T12:41:34.802Z,8
2016-09-28T12:42:34.802Z,8
2016-09-28T12:43:34.758Z,4
2016-09-28T12:44:34.740Z,8
2016-09-28T12:45:35.030Z,8
2016-09-28T12:46:35.014Z,8
2016-09-28T12:47:34.704Z,4
2016-09-28T12:48:34.992Z,4
2016-09-28T12:49:34.668Z,4
2016-09-28T12:50:34.960Z,8
2016-09-28T12:51:34.948Z,8
2016-09-28T12:52:34.619Z,8
2016-09-28T12:53:34.906Z,8
2016-09-28T12:54:34.881Z,4
2016-09-28T12:55:34.872Z,8
2016-09-28T12:56:34.552Z,4
2016-09-28T12:57:34.839Z,8
2016-09-28T12:58:34.817Z,8
2016-09-28T12:59:34.811Z,4
2016-09-28T13:00:34.798Z,4
2016-09-28T13:01:34.778Z,4
2016-09-28T13:02:34.459Z,8
2016-09-28T13:03:34.759Z,4
2016-09-28T13:04:34.724Z,4
2016-09-28T13:05:34.700Z,4
2016-09-28T13:06:34.687Z,4
2016-09-28T13:07:34.674Z,4
2016-09-28T13:08:34.654Z,4
2016-09-28T13:09:34.340Z,4
2016-09-28T13:10:34.841Z,4
2016-09-28T13:11:34.308Z,4
2016-09-28T13:12:34.295Z,4
2016-09-28T13:13:34.270Z,4
2016-09-28T13:14:34.572Z,0
2016-09-28T13:15:34.550Z,0
2016-09-28T13:16:34.541Z,4
2016-09-28T13:17:34.208Z,4
2016-09-28T13:18:34.512Z,4
2016-09-28T13:19:34.191Z,4
2016-09-28T13:20:34.464Z,4
2016-09-28T13:21:33.852Z,4
2016-09-28T13:22:34.131Z,4
2016-09-28T13:23:34.111Z,8
2016-09-28T13:24:34.394Z,8
2016-09-28T13:25:34.084Z,4
2016-09-28T13:26:34.079Z,4
2016-09-28T13:27:34.358Z,4
2016-09-28T13:28:34.327Z,4
2016-09-28T13:29:34.024Z,12
2016-09-28T13:30:34.003Z,12
2016-09-28T13:31:34.293Z,16
2016-09-28T13:32:34.261Z,12
2016-09-28T13:33:34.254Z,12
2016-09-28T13:34:34.245Z,12
2016-09-28T13:35:34.218Z,12
2016-09-28T13:36:34.228Z,16
2016-09-28T13:37:33.900Z,16
2016-09-28T13:38:33.872Z,12
2016-09-28T13:39:34.162Z,16
2016-09-28T13:40:33.838Z,12
2016-09-28T13:41:34.122Z,12
2016-09-28T13:42:33.806Z,8
2016-09-28T13:43:34.096Z,12
2016-09-28T13:44:34.077Z,8
2016-09-28T13:45:34.057Z,8
2016-09-28T13:46:33.736Z,8
2016-09-28T13:47:33.419Z,16
2016-09-28T13:48:33.709Z,16
2016-09-28T13:49:34.003Z,16
2016-09-28T13:50:33.988Z,20
2016-09-28T13:51:33.969Z,20
2016-09-28T13:52:33.956Z,16
2016-09-28T13:53:33.920Z,16
2016-09-28T13:54:33.908Z,16
2016-09-28T13:55:33.894Z,16
2016-09-28T13:56:33.872Z,20
2016-09-28T13:57:33.565Z,20
2016-09-28T13:58:33.856Z,20
2016-09-28T13:59:33.829Z,40
2016-09-28T14:00:33.818Z,16
2016-09-28T14:01:33.499Z,28
2016-09-28T14:02:33.187Z,12
2016-09-28T14:03:33.767Z,16
2016-09-28T14:04:33.760Z,16
2016-09-28T14:05:33.446Z,28
2016-09-28T14:06:33.719Z,28
2016-09-28T14:07:33.423Z,16
2016-09-28T14:08:33.689Z,16
2016-09-28T14:09:33.081Z,44
2016-09-28T14:10:33.661Z,16
2016-09-28T14:11:33.349Z,12
2016-09-28T14:12:33.627Z,16
2016-09-28T14:13:33.604Z,16
2016-09-28T14:14:33.589Z,12
2016-09-28T14:15:33.576Z,12
2016-09-28T14:16:33.271Z,28
2016-09-28T14:17:33.541Z,12
2016-09-28T14:18:32.922Z,12
2016-09-28T14:19:33.515Z,36
2016-09-28T14:20:33.497Z,12
2016-09-28T14:21:32.884Z,16
2016-09-28T14:22:33.467Z,20
2016-09-28T14:23:32.850Z,12
2016-09-28T14:24:33.435Z,16
2016-09-28T14:25:33.111Z,16
2016-09-28T14:26:33.095Z,20
2016-09-28T14:27:32.779Z,20
2016-09-28T14:28:33.379Z,32
2016-09-28T14:29:32.763Z,36
2016-09-28T14:30:33.339Z,16
2016-09-28T14:31:33.018Z,12
2016-09-28T14:32:32.705Z,8
2016-09-28T14:33:32.985Z,12
2016-09-28T14:34:33.317Z,12
2016-09-28T14:35:33.268Z,12
2016-09-28T14:36:32.938Z,28
2016-09-28T14:37:33.231Z,32
2016-09-28T14:38:32.904Z,12
2016-09-28T14:39:33.190Z,24
2016-09-28T14:40:33.179Z,20
2016-09-28T14:41:33.162Z,20